M I D A S
Marine Information and Data Acquisition System
Tripno 960 of the Zeeleeuw from 2005-09-22 06:30:24 to 2005-09-22 12:49:48
Back to CruiseResearch ActivitiesStationsMapUnderway DataData graphs

EquipmentUnitsComments
TimeDGPSUTC
LatitudeDGPSDM.mWGS84
LongitudeDGPSDM.mWGS84
SpeedMeteo Stationm/sRelative wind speed
DirectionMeteo StationdegRelative wind direction
TemperatureMeteo Stationdeg CelciusAir temperature
PressureMeteo StationPaAtmospheric pressure
HumidityMeteo Station%Relative humidity
Missing or incorrect values are displayed as -999
Metereological data collected by the RV Zeeleeuw from 2005-09-22 06:26:50 to 2005-09-22 13:01:30
Time Latitude Longitude Speed Direction Temperature Pressure Humidity
2005-09-22 06:27 51°13.601 2°56.102 -999 55 10.4 101990 100
2005-09-22 06:28 51°13.6 2°56.102 -999 56 10.4 101990 100
2005-09-22 06:29 51°13.6 2°56.096 -999 67 10.4 101980 100
2005-09-22 06:30 51°13.622 2°56.023 -999 160 10.4 101980 100
2005-09-22 06:31 51°13.657 2°55.904 -999 167 10.4 101980 100
2005-09-22 06:32 51°13.704 2°55.779 1.7 167 10.5 101980 100
2005-09-22 06:33 51°13.733 2°55.701 -999 177 10.6 101980 100
2005-09-22 06:34 51°13.752 2°55.722 -999 283 10.7 101980 100
2005-09-22 06:35 51°13.738 2°55.705 2.3 210 10.8 101990 100
2005-09-22 06:36 51°13.746 2°55.687 -999 292 10.9 101980 100
2005-09-22 06:37 51°13.86 2°55.615 2.1 348 10.9 101980 100
2005-09-22 06:38 51°13.986 2°55.528 2.7 359 11 101980 100
2005-09-22 06:39 51°14.096 2°55.448 -999 357 11.2 101980 100
2005-09-22 06:40 51°14.196 2°55.357 0.1 318 11.3 101980 100
2005-09-22 06:41 51°14.282 2°55.228 -999 343 11.5 101980 100
2005-09-22 06:42 51°14.372 2°55.031 4.5 350 11.7 101980 100
2005-09-22 06:43 51°14.498 2°54.832 4.8 352 12 101980 100
2005-09-22 06:44 51°14.675 2°54.677 5 344 12.3 101980 99
2005-09-22 06:45 51°14.867 2°54.516 5.2 342 12.6 101980 98
2005-09-22 06:46 51°15.057 2°54.351 5.6 345 12.8 101980 97
2005-09-22 06:47 51°15.254 2°54.191 5.7 350 13 101980 96
2005-09-22 06:48 51°15.451 2°54.008 5.7 343 13.1 101980 95
2005-09-22 06:49 51°15.646 2°53.837 5.7 346 13.2 101980 94
2005-09-22 06:50 51°15.845 2°53.663 5.1 348 13.3 101980 94
2005-09-22 06:51 51°16.037 2°53.496 5.1 342 13.5 101980 93
2005-09-22 06:52 51°16.237 2°53.334 5.2 340 13.5 101980 93
2005-09-22 06:53 51°16.439 2°53.173 -999 346 13.5 101990 92
2005-09-22 06:54 51°16.636 2°53.004 -999 346 13.6 101980 92
2005-09-22 06:55 51°16.835 2°52.834 -999 340 13.7 101980 92
2005-09-22 06:56 51°17.032 2°52.665 -999 342 13.7 101990 91
2005-09-22 06:57 51°17.225 2°52.491 -999 348 13.8 101990 92
2005-09-22 06:58 51°17.419 2°52.306 -999 340 14 101990 92
2005-09-22 06:59 51°17.617 2°52.135 -999 346 14.1 101990 92
2005-09-22 07:00 51°17.812 2°51.961 -999 348 14.2 101990 92
2005-09-22 07:01 51°18.009 2°51.788 -999 345 14.4 101990 91
2005-09-22 07:02 51°18.209 2°51.616 -999 346 14.5 101990 92
2005-09-22 07:03 51°18.41 2°51.445 -999 350 14.6 101990 90
2005-09-22 07:04 51°18.61 2°51.273 -999 352 14.7 101990 88
2005-09-22 07:05 51°18.809 2°51.109 -999 354 14.8 101990 85
2005-09-22 07:06 51°19.01 2°50.943 -999 354 15 101990 83
2005-09-22 07:07 51°19.209 2°50.781 -999 352 15.1 101990 81
2005-09-22 07:08 51°19.409 2°50.618 -999 353 15.2 101990 79
2005-09-22 07:09 51°19.613 2°50.452 -999 353 15.3 102000 78
2005-09-22 07:10 51°19.815 2°50.287 -999 355 15.4 101990 77
2005-09-22 07:11 51°20.021 2°50.12 -999 356 15.5 101990 78
2005-09-22 07:12 51°20.22 2°49.955 -999 353 15.6 101990 78
2005-09-22 07:13 51°20.423 2°49.791 -999 357 15.6 102000 78
2005-09-22 07:14 51°20.624 2°49.616 -999 358 15.7 101990 78
2005-09-22 07:15 51°20.822 2°49.424 -999 356 15.8 101990 79
2005-09-22 07:16 51°21.02 2°49.248 -999 356 15.8 101990 79
2005-09-22 07:17 51°21.221 2°49.081 -999 359 15.8 102000 78
2005-09-22 07:18 51°21.423 2°48.914 -999 357 15.9 101990 77
2005-09-22 07:19 51°21.627 2°48.748 -999 1 15.9 101990 76
2005-09-22 07:20 51°21.828 2°48.59 -999 357 16 102000 76
2005-09-22 07:21 51°22.034 2°48.433 -999 360 16 102000 75
2005-09-22 07:22 51°22.237 2°48.278 -999 359 16 102000 75
2005-09-22 07:23 51°22.44 2°48.123 -999 356 16 102000 76
2005-09-22 07:24 51°22.645 2°47.972 -999 357 16.1 102000 76
2005-09-22 07:25 51°22.857 2°47.819 -999 3 16.1 102000 77
2005-09-22 07:26 51°23.063 2°47.673 -999 359 16.1 102000 77
2005-09-22 07:27 51°23.273 2°47.525 -999 1 16.1 102000 77
2005-09-22 07:28 51°23.477 2°47.375 -999 357 16.2 102000 77
2005-09-22 07:29 51°23.684 2°47.223 -999 358 16.2 102000 77
2005-09-22 07:30 51°23.893 2°47.097 -999 358 16.3 102000 77
2005-09-22 07:31 51°24.106 2°46.987 -999 358 16.3 102000 77
2005-09-22 07:32 51°24.321 2°46.877 -999 357 16.3 102000 78
2005-09-22 07:33 51°24.52 2°46.952 -999 14 16.4 102000 78
2005-09-22 07:34 51°24.611 2°47.249 -999 17 16.4 102010 78
2005-09-22 07:35 51°24.686 2°47.563 -999 15 16.5 102010 78
2005-09-22 07:36 51°24.765 2°47.874 -999 18 16.6 102000 78
2005-09-22 07:37 51°24.841 2°48.183 -999 15 16.6 102000 77
2005-09-22 07:38 51°24.919 2°48.495 -999 19 16.6 102010 78
2005-09-22 07:39 51°24.993 2°48.808 -999 19 16.7 102010 78
2005-09-22 07:40 51°25.071 2°49.117 -999 10 16.7 102010 78
2005-09-22 07:41 51°25.149 2°49.425 -999 12 16.7 102010 76
2005-09-22 07:42 51°25.229 2°49.737 -999 13 16.8 102010 75
2005-09-22 07:43 51°25.306 2°50.042 -999 11 16.8 102010 73
2005-09-22 07:44 51°25.382 2°50.348 -999 6 16.9 102010 72
2005-09-22 07:45 51°25.457 2°50.661 -999 12 16.9 102010 72
2005-09-22 07:46 51°25.534 2°50.964 -999 13 16.9 102010 72
2005-09-22 07:47 51°25.611 2°51.268 -999 10 16.9 102010 71
2005-09-22 07:48 51°25.69 2°51.576 -999 12 16.9 102010 71
2005-09-22 07:49 51°25.77 2°51.879 -999 9 17 102010 72
2005-09-22 07:50 51°25.848 2°52.187 -999 14 16.9 102010 71
2005-09-22 07:51 51°25.925 2°52.493 -999 16 17 102010 72
2005-09-22 07:52 51°26.002 2°52.799 -999 12 17 102010 72
2005-09-22 07:53 51°26.079 2°53.105 -999 10 16.9 102010 72
2005-09-22 07:54 51°26.156 2°53.411 -999 9 17 102010 72
2005-09-22 07:55 51°26.233 2°53.724 -999 9 17 102000 72
2005-09-22 07:56 51°26.308 2°54.028 -999 14 17 102010 73
2005-09-22 07:57 51°26.384 2°54.343 -999 14 17 102010 73
2005-09-22 07:58 51°26.459 2°54.651 -999 14 17 102010 72
2005-09-22 07:59 51°26.53 2°54.957 -999 17 17 102010 73
2005-09-22 08:00 51°26.613 2°55.267 -999 15 17 102010 73
2005-09-22 08:01 51°26.692 2°55.572 -999 12 17 102010 73
2005-09-22 08:02 51°26.772 2°55.883 -999 13 17 102010 73
2005-09-22 08:03 51°26.853 2°56.19 -999 12 16.9 102010 73
2005-09-22 08:04 51°26.936 2°56.501 -999 16 17 102010 73
2005-09-22 08:05 51°27.018 2°56.801 -999 13 16.9 102010 73
2005-09-22 08:06 51°27.096 2°57.109 -999 14 16.8 102020 74
2005-09-22 08:07 51°27.176 2°57.415 -999 18 16.9 102010 75
2005-09-22 08:08 51°27.255 2°57.72 -999 20 16.8 102010 76
2005-09-22 08:09 51°27.335 2°58.031 0.1 23 16.7 102020 77
2005-09-22 08:10 51°27.415 2°58.338 -999 22 16.7 102010 78
2005-09-22 08:11 51°27.494 2°58.645 -999 20 16.6 102020 78
2005-09-22 08:12 51°27.573 2°58.949 -999 22 16.5 102010 77
2005-09-22 08:13 51°27.649 2°59.264 -999 21 16.5 102020 77
2005-09-22 08:14 51°27.723 2°59.577 -999 20 16.5 102010 77
2005-09-22 08:15 51°27.798 2°59.887 -999 20 16.5 102010 77
2005-09-22 08:16 51°27.871 3°0.201 -999 25 16.5 102010 77
2005-09-22 08:17 51°27.945 3°0.519 -999 24 16.4 102010 78
2005-09-22 08:18 51°28.016 3°0.831 -999 24 16.4 102010 78
2005-09-22 08:19 51°28.089 3°1.145 -999 23 16.4 102020 78
2005-09-22 08:20 51°28.163 3°1.46 -999 29 16.4 102010 79
2005-09-22 08:21 51°28.237 3°1.773 -999 29 16.2 102010 79
2005-09-22 08:22 51°28.314 3°2.089 -999 30 16.1 102020 80
2005-09-22 08:23 51°28.391 3°2.402 -999 27 16 102010 81
2005-09-22 08:24 51°28.469 3°2.715 -999 29 16 102020 82
2005-09-22 08:25 51°28.549 3°3.03 -999 33 15.9 102010 82
2005-09-22 08:26 51°28.628 3°3.341 -999 31 15.7 102010 83
2005-09-22 08:27 51°28.715 3°3.644 -999 30 15.6 102010 84
2005-09-22 08:28 51°28.813 3°3.944 -999 37 15.5 102020 84
2005-09-22 08:29 51°28.999 3°4.077 -999 32 15.4 102020 85
2005-09-22 08:30 51°29.215 3°4.042 -999 18 15.3 102020 85
2005-09-22 08:31 51°29.427 3°3.963 -999 24 15.3 102030 86
2005-09-22 08:32 51°29.637 3°3.885 -999 27 15.4 102030 86
2005-09-22 08:33 51°29.847 3°3.8 -999 25 15.3 102030 86
2005-09-22 08:34 51°30.037 3°3.659 -999 354 15.3 102030 86
2005-09-22 08:35 51°30.075 3°3.333 -999 337 15.4 102030 86
2005-09-22 08:36 51°30.017 3°2.984 -999 339 15.4 102020 86
2005-09-22 08:37 51°29.969 3°2.624 -999 339 15.5 102020 86
2005-09-22 08:38 51°29.921 3°2.268 -999 341 15.7 102020 86
2005-09-22 08:39 51°29.867 3°1.907 -999 337 15.7 102030 86
2005-09-22 08:40 51°29.813 3°1.554 -999 352 15.8 102010 86
2005-09-22 08:41 51°29.76 3°1.197 -999 347 15.8 102020 85
2005-09-22 08:42 51°29.706 3°0.833 -999 348 15.9 102020 84
2005-09-22 08:43 51°29.651 3°0.477 -999 349 16 102020 84
2005-09-22 08:44 51°29.593 3°0.114 -999 349 16.1 102020 83
2005-09-22 08:45 51°29.532 2°59.759 -999 346 16.1 102020 82
2005-09-22 08:46 51°29.471 2°59.399 -999 348 16.2 102020 83
2005-09-22 08:47 51°29.411 2°59.034 -999 356 16.3 102010 82
2005-09-22 08:48 51°29.35 2°58.676 -999 350 16.3 102010 81
2005-09-22 08:49 51°29.288 2°58.313 -999 346 16.4 102020 80
2005-09-22 08:50 51°29.226 2°57.951 -999 347 16.5 102010 81
2005-09-22 08:51 51°29.161 2°57.586 -999 356 16.5 102020 80
2005-09-22 08:52 51°29.101 2°57.217 -999 350 16.5 102010 79
2005-09-22 08:53 51°29.04 2°56.851 -999 355 16.6 102020 79
2005-09-22 08:54 51°28.983 2°56.479 -999 354 16.7 102020 78
2005-09-22 08:55 51°28.926 2°56.106 -999 348 16.7 102020 79
2005-09-22 08:56 51°28.869 2°55.734 -999 348 16.8 102020 79
2005-09-22 08:57 51°28.812 2°55.358 -999 345 16.8 102020 80
2005-09-22 08:58 51°28.758 2°54.99 -999 349 16.8 102020 80
2005-09-22 08:59 51°28.702 2°54.618 -999 347 16.9 102020 80
2005-09-22 09:00 51°28.646 2°54.242 -999 349 16.9 102020 80
2005-09-22 09:01 51°28.591 2°53.87 -999 350 16.9 102020 80
2005-09-22 09:02 51°28.537 2°53.502 -999 347 16.9 102020 81
2005-09-22 09:03 51°28.484 2°53.127 -999 347 17 102020 81
2005-09-22 09:04 51°28.431 2°52.758 -999 348 17 102010 81
2005-09-22 09:05 51°28.377 2°52.383 -999 345 17.1 102010 81
2005-09-22 09:06 51°28.323 2°52.013 -999 360 17.1 102010 81
2005-09-22 09:07 51°28.268 2°51.638 -999 359 17 102010 77
2005-09-22 09:08 51°28.21 2°51.258 -999 357 17.1 102010 74
2005-09-22 09:09 51°28.155 2°50.882 -999 356 17.1 102010 73
2005-09-22 09:10 51°28.098 2°50.503 -999 355 17.2 102010 72
2005-09-22 09:11 51°28.041 2°50.121 -999 349 17.3 102010 72
2005-09-22 09:12 51°27.985 2°49.745 -999 356 17.4 102010 72
2005-09-22 09:13 51°27.928 2°49.371 -999 353 17.4 102010 71
2005-09-22 09:14 51°27.87 2°48.989 -999 353 17.5 102010 71
2005-09-22 09:15 51°27.813 2°48.608 -999 352 17.6 102010 71
2005-09-22 09:16 51°27.756 2°48.233 -999 355 17.6 102010 71
2005-09-22 09:17 51°27.696 2°47.85 -999 356 17.6 102010 71
2005-09-22 09:18 51°27.638 2°47.467 -999 357 17.6 102010 71
2005-09-22 09:19 51°27.577 2°47.084 -999 359 17.6 102000 70
2005-09-22 09:20 51°27.516 2°46.699 -999 357 17.6 102000 70
2005-09-22 09:21 51°27.455 2°46.315 -999 356 17.6 102000 70
2005-09-22 09:22 51°27.396 2°45.931 -999 356 17.6 102010 70
2005-09-22 09:23 51°27.335 2°45.548 -999 355 17.7 102010 72
2005-09-22 09:24 51°27.276 2°45.163 -999 355 17.8 102010 72
2005-09-22 09:25 51°27.23 2°44.786 -999 351 17.7 102000 73
2005-09-22 09:26 51°27.311 2°44.455 -999 353 17.7 102010 74
2005-09-22 09:27 51°27.502 2°44.293 -999 1 17.8 102010 74
2005-09-22 09:28 51°27.692 2°44.122 -999 1 17.7 102010 74
2005-09-22 09:29 51°27.886 2°43.95 -999 358 17.7 102010 73
2005-09-22 09:30 51°28.077 2°43.782 -999 1 17.7 102000 74
2005-09-22 09:31 51°28.267 2°43.617 -999 358 17.7 102010 74
2005-09-22 09:32 51°28.464 2°43.495 -999 5 17.6 102010 74
2005-09-22 09:33 51°28.627 2°43.616 -999 22 17.7 102000 74
2005-09-22 09:34 51°28.708 2°43.899 -999 27 17.7 102000 74
2005-09-22 09:35 51°28.783 2°44.193 -999 23 17.7 102000 74
2005-09-22 09:36 51°28.853 2°44.487 -999 24 17.7 102000 72
2005-09-22 09:37 51°28.927 2°44.774 -999 27 17.8 102000 71
2005-09-22 09:38 51°28.997 2°45.065 -999 25 17.8 102000 70
2005-09-22 09:39 51°29.066 2°45.358 -999 23 17.8 102000 70
2005-09-22 09:40 51°29.139 2°45.649 -999 26 17.9 102000 70
2005-09-22 09:41 51°29.212 2°45.936 -999 27 17.9 102000 69
2005-09-22 09:42 51°29.287 2°46.223 -999 23 17.8 102000 69
2005-09-22 09:43 51°29.358 2°46.514 -999 26 17.9 102000 70
2005-09-22 09:44 51°29.428 2°46.806 -999 24 17.9 101990 71
2005-09-22 09:45 51°29.495 2°47.102 -999 23 17.8 102000 70
2005-09-22 09:46 51°29.564 2°47.391 -999 25 17.8 101990 70
2005-09-22 09:47 51°29.631 2°47.688 -999 24 17.8 101990 70
2005-09-22 09:48 51°29.699 2°47.982 -999 24 17.8 101980 71
2005-09-22 09:49 51°29.767 2°48.276 -999 25 17.8 101990 71
2005-09-22 09:50 51°29.836 2°48.57 -999 23 17.7 101990 70
2005-09-22 09:51 51°29.905 2°48.864 -999 23 17.7 101990 70
2005-09-22 09:52 51°29.972 2°49.152 -999 21 17.7 101990 71
2005-09-22 09:53 51°30.044 2°49.446 -999 26 17.7 101990 71
2005-09-22 09:54 51°30.114 2°49.735 -999 28 17.7 101990 71
2005-09-22 09:55 51°30.184 2°50.03 -999 33 17.7 101980 75
2005-09-22 09:56 51°30.253 2°50.321 -999 39 17.4 101980 80
2005-09-22 09:57 51°30.322 2°50.614 -999 42 17 101980 82
2005-09-22 09:58 51°30.392 2°50.913 -999 41 16.7 101980 84
2005-09-22 09:59 51°30.462 2°51.207 -999 40 16.6 101980 86
2005-09-22 10:00 51°30.529 2°51.503 -999 42 16.5 101990 87
2005-09-22 10:01 51°30.596 2°51.797 -999 36 16.4 101980 87
2005-09-22 10:02 51°30.662 2°52.095 -999 41 16.3 101980 87
2005-09-22 10:03 51°30.728 2°52.388 -999 36 16.3 101990 88
2005-09-22 10:04 51°30.797 2°52.679 -999 37 16.2 101990 88
2005-09-22 10:05 51°30.87 2°52.966 -999 37 16.2 101990 88
2005-09-22 10:06 51°30.943 2°53.251 -999 38 16.2 101990 88
2005-09-22 10:07 51°31.016 2°53.536 -999 42 16.2 101980 88
2005-09-22 10:08 51°31.091 2°53.819 -999 38 16.2 101990 89
2005-09-22 10:09 51°31.164 2°54.104 -999 41 16.2 101990 88
2005-09-22 10:10 51°31.237 2°54.388 -999 40 16.1 101980 88
2005-09-22 10:11 51°31.308 2°54.677 -999 38 16.2 101990 88
2005-09-22 10:12 51°31.38 2°54.963 -999 39 16.2 102000 87
2005-09-22 10:13 51°31.451 2°55.25 -999 34 16.2 101990 86
2005-09-22 10:14 51°31.522 2°55.536 -999 37 16.2 102000 85
2005-09-22 10:15 51°31.592 2°55.825 -999 41 16.2 101990 85
2005-09-22 10:16 51°31.664 2°56.121 -999 34 16.2 101990 85
2005-09-22 10:17 51°31.733 2°56.41 -999 36 16.2 101990 85
2005-09-22 10:18 51°31.803 2°56.705 -999 38 16.2 101990 85
2005-09-22 10:19 51°31.874 2°57.002 -999 38 16.2 101990 85
2005-09-22 10:20 51°31.946 2°57.3 -999 33 16.2 101990 84
2005-09-22 10:21 51°32.017 2°57.592 -999 35 16.2 101990 84
2005-09-22 10:22 51°32.092 2°57.888 -999 36 16.2 101990 84
2005-09-22 10:23 51°32.169 2°58.187 -999 36 16.2 101990 83
2005-09-22 10:24 51°32.269 2°58.437 -999 36 16.3 102000 84
2005-09-22 10:25 51°32.41 2°58.637 -999 34 16.3 102000 84
2005-09-22 10:26 51°32.541 2°58.863 -999 34 16.3 102000 84
2005-09-22 10:27 51°32.677 2°59.094 -999 36 16.2 101990 84
2005-09-22 10:28 51°32.807 2°59.325 -999 35 16.2 102000 83
2005-09-22 10:29 51°32.937 2°59.554 -999 36 16.2 101990 83
2005-09-22 10:30 51°33.069 2°59.786 -999 36 16.2 102000 83
2005-09-22 10:31 51°33.203 3°0.021 -999 35 16.2 102000 83
2005-09-22 10:32 51°33.335 3°0.252 -999 39 16.2 102000 83
2005-09-22 10:33 51°33.466 3°0.482 -999 38 16.2 101990 83
2005-09-22 10:34 51°33.598 3°0.711 -999 37 16.2 102000 83
2005-09-22 10:35 51°33.726 3°0.937 -999 41 16.2 102000 83
2005-09-22 10:36 51°33.868 3°1.131 -999 33 16.2 102000 83
2005-09-22 10:37 51°34.051 3°1.097 -999 28 16.2 102010 84
2005-09-22 10:38 51°34.244 3°1.035 -999 15 16.4 102010 83
2005-09-22 10:39 51°34.378 3°0.816 -999 341 16.4 102010 82
2005-09-22 10:40 51°34.334 3°0.462 -999 342 16.6 101990 81
2005-09-22 10:41 51°34.234 3°0.107 7.2 339 16.7 101990 80
2005-09-22 10:42 51°34.129 2°59.75 7.5 338 16.8 101990 80
2005-09-22 10:43 51°34.025 2°59.395 8 337 16.9 101990 80
2005-09-22 10:44 51°33.923 2°59.041 8.2 340 16.9 101980 80
2005-09-22 10:45 51°33.818 2°58.679 8.1 343 17 101990 79
2005-09-22 10:46 51°33.717 2°58.325 7.5 340 17 101990 79
2005-09-22 10:47 51°33.611 2°57.968 8 341 17.1 102000 78
2005-09-22 10:48 51°33.507 2°57.617 7.7 340 17.1 101990 78
2005-09-22 10:49 51°33.4 2°57.26 8.2 343 17.1 101990 78
2005-09-22 10:50 51°33.293 2°56.895 7.2 338 17.1 101990 78
2005-09-22 10:51 51°33.188 2°56.542 7.8 341 17.1 101990 78
2005-09-22 10:52 51°33.081 2°56.181 8.1 337 17.1 101990 78
2005-09-22 10:53 51°32.976 2°55.823 7.8 340 17.2 101990 78
2005-09-22 10:54 51°32.869 2°55.467 8.4 339 17.2 101990 77
2005-09-22 10:55 51°32.761 2°55.107 7.1 340 17.2 101990 78
2005-09-22 10:56 51°32.655 2°54.749 7.5 340 17.2 101990 77
2005-09-22 10:57 51°32.549 2°54.388 7.7 341 17.3 101990 78
2005-09-22 10:58 51°32.442 2°54.03 8.2 339 17.3 101990 78
2005-09-22 10:59 51°32.337 2°53.672 7.8 343 17.4 101990 78
2005-09-22 11:00 51°32.23 2°53.313 8.2 341 17.4 101990 78
2005-09-22 11:01 51°32.124 2°52.955 8 342 17.4 101990 78
2005-09-22 11:02 51°32.016 2°52.594 8.7 342 17.4 101990 78
2005-09-22 11:03 51°31.911 2°52.233 8.9 345 17.5 101980 79
2005-09-22 11:04 51°31.805 2°51.874 8.8 345 17.4 101990 78
2005-09-22 11:05 51°31.7 2°51.522 8.2 339 17.4 101980 78
2005-09-22 11:06 51°31.593 2°51.156 8.2 342 17.5 101990 78
2005-09-22 11:07 51°31.49 2°50.804 8.2 338 17.4 101980 78
2005-09-22 11:08 51°31.37 2°50.457 8.9 342 17.5 101980 78
2005-09-22 11:09 51°31.243 2°50.114 9 340 17.5 101980 78
2005-09-22 11:10 51°31.114 2°49.767 8.1 342 17.5 101980 78
2005-09-22 11:11 51°30.988 2°49.422 8.8 344 17.6 101980 77
2005-09-22 11:12 51°30.864 2°49.079 8.1 343 17.6 101980 77
2005-09-22 11:13 51°30.739 2°48.735 8.4 344 17.6 101980 78
2005-09-22 11:14 51°30.615 2°48.389 8.7 346 17.6 101980 77
2005-09-22 11:15 51°30.493 2°48.052 7.8 343 17.6 101980 76
2005-09-22 11:16 51°30.367 2°47.705 8.6 344 17.7 101970 76
2005-09-22 11:17 51°30.241 2°47.359 8.8 341 17.7 101980 75
2005-09-22 11:18 51°30.118 2°47.021 8.6 346 17.7 101970 76
2005-09-22 11:19 51°29.997 2°46.676 8.1 345 17.7 101970 76
2005-09-22 11:20 51°29.875 2°46.334 8.2 342 17.7 101970 76
2005-09-22 11:21 51°29.751 2°45.986 8.3 341 17.7 101970 76
2005-09-22 11:22 51°29.631 2°45.646 8.6 343 17.7 101970 77
2005-09-22 11:23 51°29.514 2°45.312 8.7 346 17.7 101970 77
2005-09-22 11:24 51°29.394 2°44.974 8.1 344 17.7 101970 77
2005-09-22 11:25 51°29.275 2°44.636 7.7 340 17.7 101970 76
2005-09-22 11:26 51°29.152 2°44.291 8.3 341 17.7 101970 76
2005-09-22 11:27 51°29.034 2°43.957 8 337 17.7 101960 74
2005-09-22 11:28 51°28.914 2°43.617 7.9 342 17.7 101960 75
2005-09-22 11:29 51°28.794 2°43.275 8.8 342 17.7 101970 74
2005-09-22 11:30 51°28.671 2°42.93 8.1 342 17.7 101960 74
2005-09-22 11:31 51°28.551 2°42.592 8 339 17.7 101960 75
2005-09-22 11:32 51°28.415 2°42.26 9.1 345 17.7 101960 74
2005-09-22 11:33 51°28.201 2°42.128 10.6 2 17.7 101950 74
2005-09-22 11:34 51°27.965 2°42.184 10.3 10 17.6 101960 74
2005-09-22 11:35 51°27.736 2°42.271 10.3 6 17.6 101950 74
2005-09-22 11:36 51°27.506 2°42.357 10.1 9 17.5 101950 74
2005-09-22 11:37 51°27.28 2°42.438 9.7 9 17.5 101950 74
2005-09-22 11:38 51°27.057 2°42.511 10.1 13 17.4 101950 74
2005-09-22 11:39 51°26.84 2°42.588 9.8 10 17.4 101950 73
2005-09-22 11:40 51°26.615 2°42.665 9.7 11 17.4 101950 74
2005-09-22 11:41 51°26.397 2°42.741 9.7 11 17.3 101950 73
2005-09-22 11:42 51°26.172 2°42.823 10.4 10 17.3 101960 73
2005-09-22 11:43 51°25.951 2°42.899 9.9 6 17.2 101950 71
2005-09-22 11:44 51°25.723 2°42.98 9.8 10 17.3 101950 69
2005-09-22 11:45 51°25.501 2°43.063 9.3 11 17.3 101960 69
2005-09-22 11:46 51°25.273 2°43.152 9.6 6 17.3 101950 68
2005-09-22 11:47 51°25.047 2°43.239 9.2 8 17.3 101960 67
2005-09-22 11:48 51°24.825 2°43.327 9.4 7 17.3 101960 68
2005-09-22 11:49 51°24.594 2°43.421 9.2 8 17.3 101950 69
2005-09-22 11:50 51°24.372 2°43.518 9.1 5 17.3 101960 68
2005-09-22 11:51 51°24.152 2°43.596 8.6 11 17.3 101960 67
2005-09-22 11:52 51°23.928 2°43.679 8.8 11 17.3 101960 65
2005-09-22 11:53 51°23.709 2°43.757 8.6 13 17.3 101960 66
2005-09-22 11:54 51°23.485 2°43.838 9 15 17.4 101960 67
2005-09-22 11:55 51°23.265 2°43.917 8.8 11 17.4 101960 66
2005-09-22 11:56 51°23.043 2°44.001 8.4 5 17.4 101950 66
2005-09-22 11:57 51°22.819 2°44.092 8.9 13 17.4 101950 66
2005-09-22 11:58 51°22.595 2°44.181 8.3 12 17.4 101950 66
2005-09-22 11:59 51°22.368 2°44.274 8.1 11 17.5 101950 65
2005-09-22 12:00 51°22.149 2°44.383 8 13 17.5 101950 65
2005-09-22 12:01 51°21.932 2°44.502 8 11 17.5 101960 65
2005-09-22 12:02 51°21.717 2°44.621 7.7 9 17.5 101950 66
2005-09-22 12:03 51°21.498 2°44.746 7.9 12 17.5 101950 66
2005-09-22 12:04 51°21.304 2°44.929 7.9 12 17.5 101950 67
2005-09-22 12:05 51°21.12 2°45.137 7.2 12 17.5 101950 67
2005-09-22 12:06 51°20.937 2°45.339 7 15 17.5 101950 67
2005-09-22 12:07 51°20.758 2°45.537 6.8 13 17.6 101940 67
2005-09-22 12:08 51°20.589 2°45.752 6.8 13 17.6 101940 67
2005-09-22 12:09 51°20.441 2°46.007 6.7 10 17.6 101940 67
2005-09-22 12:10 51°20.305 2°46.277 6.4 14 17.6 101940 66
2005-09-22 12:11 51°20.17 2°46.548 6.3 11 17.6 101940 67
2005-09-22 12:12 51°20.04 2°46.819 6.5 13 17.6 101940 67
2005-09-22 12:13 51°19.911 2°47.094 5.7 10 17.6 101940 67
2005-09-22 12:14 51°19.783 2°47.372 5.6 9 17.6 101940 67
2005-09-22 12:15 51°19.653 2°47.649 5.6 10 17.6 101950 68
2005-09-22 12:16 51°19.524 2°47.924 5.4 8 17.6 101940 68
2005-09-22 12:17 51°19.396 2°48.201 5.4 8 17.6 101940 68
2005-09-22 12:18 51°19.271 2°48.474 5.3 6 17.6 101940 68
2005-09-22 12:19 51°19.144 2°48.759 5.3 7 17.6 101940 67
2005-09-22 12:20 51°19.02 2°49.04 3.3 5 17.6 101940 67
2005-09-22 12:21 51°18.897 2°49.321 5.2 6 17.6 101940 67
2005-09-22 12:22 51°18.771 2°49.603 5 4 17.6 101940 66
2005-09-22 12:23 51°18.64 2°49.885 5 4 17.6 101940 66
2005-09-22 12:24 51°18.509 2°50.161 4.8 3 17.7 101940 66
2005-09-22 12:25 51°18.375 2°50.442 5.1 3 17.7 101930 65
2005-09-22 12:26 51°18.248 2°50.718 4.7 1 17.7 101930 65
2005-09-22 12:27 51°18.112 2°50.987 4.5 1 17.8 101940 65
2005-09-22 12:28 51°17.976 2°51.259 4.3 2 17.8 101930 65
2005-09-22 12:29 51°17.831 2°51.53 4.1 2 17.9 101930 65
2005-09-22 12:30 51°17.683 2°51.789 4.8 -999 17.9 101930 65
2005-09-22 12:31 51°17.526 2°52.042 3.9 1 17.9 101930 66
2005-09-22 12:32 51°17.341 2°52.242 4.4 7 18 101930 65
2005-09-22 12:33 51°17.148 2°52.44 4.9 7 18 101930 65
2005-09-22 12:34 51°16.956 2°52.634 3.9 6 18 101930 65
2005-09-22 12:35 51°16.764 2°52.823 3.6 4 18.1 101930 65
2005-09-22 12:36 51°16.565 2°53.007 3.3 -999 18.1 101930 66
2005-09-22 12:37 51°16.37 2°53.191 3.5 360 18.1 101930 66
2005-09-22 12:38 51°16.164 2°53.347 4.2 4 18.2 101920 67
2005-09-22 12:39 51°15.955 2°53.493 4.3 8 18.2 101920 66
2005-09-22 12:40 51°15.744 2°53.628 4.2 9 18.2 101920 66
2005-09-22 12:41 51°15.533 2°53.762 3.8 11 18.3 101920 67
2005-09-22 12:42 51°15.338 2°53.894 2 7 18.3 101920 67
2005-09-22 12:43 51°15.192 2°53.995 2.1 1 18.3 101920 65
2005-09-22 12:44 51°15.018 2°54.132 3.1 352 18.4 101920 65
2005-09-22 12:45 51°14.847 2°54.303 3.1 350 18.4 101910 64
2005-09-22 12:46 51°14.681 2°54.497 3.3 348 18.6 101910 66
2005-09-22 12:47 51°14.539 2°54.724 4 342 18.6 101910 65
2005-09-22 12:48 51°14.411 2°54.975 3.8 334 18.7 101910 67
2005-09-22 12:49 51°14.294 2°55.21 4.4 346 18.6 101910 66
2005-09-22 12:50 51°14.16 2°55.383 3.5 356 18.7 101910 66
2005-09-22 12:51 51°14.034 2°55.479 1.4 8 18.7 101910 67
2005-09-22 12:52 51°13.93 2°55.561 0.7 342 18.8 101910 66
2005-09-22 12:53 51°13.825 2°55.638 0.3 342 18.9 101910 66
2005-09-22 12:54 51°13.745 2°55.729 2.1 267 19.1 101910 65
2005-09-22 12:55 51°13.689 2°55.84 3.5 294 19.2 101900 64
2005-09-22 12:56 51°13.643 2°55.961 1.9 297 19.3 101900 64
2005-09-22 12:57 51°13.614 2°56.056 1.3 247 19.4 101900 63
2005-09-22 12:58 51°13.603 2°56.091 1.8 244 19.5 101900 62
2005-09-22 12:59 51°13.6 2°56.098 1.8 244 19.7 101900 61
2005-09-22 13:00 51°13.599 2°56.1 1.4 280 19.8 101900 61